Time;durP1;ratioP1;P1;durP2;ratioP2;P2;SDS_P1;SDS_P2;PMS_P1;PMS_P2;Temp;Humidity;BMP_temperature;BMP_pressure;BME280_temperature;BME280_humidity;BME280_pressure;Samples;Min_cycle;Max_cycle;Signal;HPM_P1;HPM_P2
2021/12/04 00:00:53;;;;;;;;;;;10.10;99.90;;;;;;4989823;28;19925;-62
2021/12/04 00:03:18;;;;;;;;;;;10.20;99.90;;;;;;4989513;28;20402;-62
2021/12/04 00:05:52;;;;;;;;;;;10.20;99.90;;;;;;4991382;28;19910;-60
2021/12/04 00:08:17;;;;;;;;;;;10.30;99.90;;;;;;4991806;28;19922;-62
2021/12/04 00:10:43;;;;;;;;;;;10.40;99.90;;;;;;4989158;28;19920;-60
2021/12/04 00:13:08;;;;;;;;;;;10.40;99.90;;;;;;4988782;28;19914;-62
2021/12/04 00:15:34;;;;;;;;;;;10.40;99.90;;;;;;4989232;28;19937;-59
2021/12/04 00:18:00;;;;;;;;;;;10.40;99.90;;;;;;4989691;28;19918;-60
2021/12/04 00:20:30;;;;;;;;;;;10.50;99.90;;;;;;4992057;28;19973;-61
2021/12/04 00:22:58;;;;;;;;;;;10.50;99.90;;;;;;4989471;28;19914;-62
2021/12/04 00:25:24;;;;;;;;;;;10.60;99.90;;;;;;4989148;28;19920;-61
2021/12/04 00:27:49;;;;;;;;;;;10.60;99.90;;;;;;4989180;28;20000;-61
2021/12/04 00:30:15;;;;;;;;;;;10.70;99.90;;;;;;4988963;28;19914;-60
2021/12/04 00:32:43;;;;;;;;;;;10.70;99.90;;;;;;4991300;28;19910;-62
2021/12/04 00:37:52;;;;;;;;;;;10.80;99.90;;;;;;4988810;28;20016;-60
2021/12/04 00:43:25;;;;;;;;;;;10.80;99.90;;;;;;4988829;28;20396;-62
2021/12/04 00:51:19;;;;;;;;;;;10.80;99.90;;;;;;4989069;28;19921;-60
2021/12/04 00:53:44;;;;;;;;;;;10.90;99.90;;;;;;4990788;28;19910;-60
2021/12/04 00:56:10;;;;;;;;;;;11.00;99.90;;;;;;4989594;28;19944;-61
2021/12/04 00:58:36;;;;;;;;;;;11.00;99.90;;;;;;4988903;28;20303;-61
2021/12/04 01:01:01;;;;;;;;;;;11.00;99.90;;;;;;4988602;28;20012;-63
2021/12/04 01:03:27;;;;;;;;;;;11.00;99.90;;;;;;4988136;28;20004;-62
2021/12/04 01:05:52;;;;;;;;;;;11.10;99.90;;;;;;4990216;28;19914;-60
2021/12/04 01:08:18;;;;;;;;;;;11.10;99.90;;;;;;4990590;28;20374;-60
2021/12/04 01:10:44;;;;;;;;;;;11.10;99.90;;;;;;4988340;28;19915;-61
2021/12/04 01:13:12;;;;;;;;;;;11.10;99.90;;;;;;4988263;28;19944;-61
2021/12/04 01:15:42;;;;;;;;;;;11.10;99.90;;;;;;4988464;28;19914;-62
2021/12/04 01:18:08;;;;;;;;;;;11.20;99.90;;;;;;4988655;28;20330;-61
2021/12/04 01:20:33;;;;;;;;;;;11.20;99.90;;;;;;4991214;28;19992;-61
2021/12/04 01:22:59;;;;;;;;;;;11.20;99.90;;;;;;4990348;28;19910;-62
2021/12/04 01:25:24;;;;;;;;;;;11.20;99.90;;;;;;4992215;28;20330;-59
2021/12/04 01:27:50;;;;;;;;;;;11.20;99.90;;;;;;4992348;28;19929;-60
2021/12/04 01:30:15;;;;;;;;;;;11.20;99.90;;;;;;4992674;28;20592;-61
2021/12/04 01:32:41;;;;;;;;;;;11.20;99.90;;;;;;4994398;28;19913;-62
2021/12/04 01:35:06;;;;;;;;;;;11.30;99.90;;;;;;4993392;28;19913;-60
2021/12/04 01:37:32;;;;;;;;;;;11.30;99.90;;;;;;4993301;28;19921;-60
2021/12/04 01:39:57;;;;;;;;;;;11.30;99.90;;;;;;4993842;28;20407;-61
2021/12/04 01:42:23;;;;;;;;;;;11.30;99.90;;;;;;4992549;28;19914;-61
2021/12/04 01:44:49;;;;;;;;;;;11.30;99.90;;;;;;4993684;28;20275;-60
2021/12/04 01:47:17;;;;;;;;;;;11.30;99.90;;;;;;4993412;28;19924;-61
2021/12/04 01:49:43;;;;;;;;;;;11.40;99.90;;;;;;4991800;28;19917;-60
2021/12/04 01:52:08;;;;;;;;;;;11.40;99.90;;;;;;4992494;28;20009;-61
2021/12/04 01:54:35;;;;;;;;;;;11.40;99.90;;;;;;4991785;28;20406;-62
2021/12/04 01:57:01;;;;;;;;;;;11.40;99.90;;;;;;4992074;28;19922;-60
2021/12/04 01:59:27;;;;;;;;;;;11.40;99.90;;;;;;4995225;28;19914;-60
2021/12/04 02:01:53;;;;;;;;;;;11.40;99.90;;;;;;4991212;28;20405;-60
2021/12/04 02:04:18;;;;;;;;;;;11.40;99.90;;;;;;4991841;28;19917;-60
2021/12/04 02:06:44;;;;;;;;;;;11.40;99.90;;;;;;4991678;28;19922;-60
2021/12/04 02:09:09;;;;;;;;;;;11.40;99.90;;;;;;4992091;28;20045;-60
2021/12/04 02:11:35;;;;;;;;;;;11.50;99.90;;;;;;4994508;28;19914;-61
2021/12/04 02:14:00;;;;;;;;;;;11.50;99.90;;;;;;4992410;28;20394;-60
2021/12/04 02:16:26;;;;;;;;;;;11.50;99.90;;;;;;4992636;28;19921;-60
2021/12/04 02:18:51;;;;;;;;;;;11.50;99.90;;;;;;4991312;28;19925;-62
2021/12/04 02:21:17;;;;;;;;;;;11.50;99.90;;;;;;4991758;28;19914;-61
2021/12/04 02:23:42;;;;;;;;;;;11.50;99.90;;;;;;4993781;28;19909;-60
2021/12/04 02:26:08;;;;;;;;;;;11.60;99.90;;;;;;4992282;28;20302;-61
2021/12/04 02:28:34;;;;;;;;;;;11.60;99.90;;;;;;4991422;28;20379;-62
2021/12/04 02:30:59;;;;;;;;;;;11.50;99.90;;;;;;4990818;28;20366;-60
2021/12/04 02:33:25;;;;;;;;;;;11.50;99.90;;;;;;4992446;28;19914;-61
2021/12/04 02:35:52;;;;;;;;;;;11.50;99.90;;;;;;4991851;28;19910;-60
2021/12/04 02:38:18;;;;;;;;;;;11.50;99.90;;;;;;4993083;28;19914;-61
2021/12/04 02:40:46;;;;;;;;;;;11.50;99.90;;;;;;4991190;28;19960;-61
2021/12/04 02:43:12;;;;;;;;;;;11.50;99.90;;;;;;4990853;28;19921;-60
2021/12/04 02:45:37;;;;;;;;;;;11.50;99.90;;;;;;4990499;28;19918;-62
2021/12/04 02:48:03;;;;;;;;;;;11.50;99.90;;;;;;4991119;28;20017;-61
2021/12/04 02:50:29;;;;;;;;;;;11.50;99.90;;;;;;4994364;28;19972;-61
2021/12/04 02:52:54;;;;;;;;;;;11.50;99.90;;;;;;4990725;28;19960;-62
2021/12/04 02:55:20;;;;;;;;;;;11.60;99.90;;;;;;4990912;28;19918;-61
2021/12/04 02:57:46;;;;;;;;;;;11.60;99.90;;;;;;4990964;28;19968;-61
2021/12/04 03:00:16;;;;;;;;;;;11.60;99.90;;;;;;4990444;28;19961;-61
2021/12/04 03:02:42;;;;;;;;;;;11.50;99.90;;;;;;4992686;28;19910;-60
2021/12/04 03:05:09;;;;;;;;;;;11.50;99.90;;;;;;4991640;28;19921;-63
2021/12/04 03:07:34;;;;;;;;;;;11.50;99.90;;;;;;4990529;28;20310;-61
2021/12/04 03:10:00;;;;;;;;;;;11.50;99.90;;;;;;4990296;28;19914;-60
2021/12/04 03:12:26;;;;;;;;;;;11.60;99.90;;;;;;4990662;28;19914;-60
2021/12/04 03:14:52;;;;;;;;;;;11.60;99.90;;;;;;4991531;28;19922;-61
2021/12/04 03:17:20;;;;;;;;;;;11.60;99.90;;;;;;4992609;28;19944;-60
2021/12/04 03:19:46;;;;;;;;;;;11.60;99.90;;;;;;4990247;28;19914;-60
2021/12/04 03:22:14;;;;;;;;;;;11.60;99.90;;;;;;4990547;28;19918;-60
2021/12/04 03:24:41;;;;;;;;;;;11.70;99.90;;;;;;4990095;28;19960;-61
2021/12/04 03:27:07;;;;;;;;;;;11.70;99.90;;;;;;4990263;28;19957;-61
2021/12/04 03:29:38;;;;;;;;;;;11.70;99.90;;;;;;4993124;28;19948;-62
2021/12/04 03:40:11;;;;;;;;;;;11.70;99.90;;;;;;4990350;28;19921;-60
2021/12/04 03:42:39;;;;;;;;;;;11.70;99.90;;;;;;4989510;28;19914;-61
2021/12/04 03:45:06;;;;;;;;;;;11.70;99.90;;;;;;4989948;28;20387;-62
2021/12/04 03:47:32;;;;;;;;;;;11.70;99.90;;;;;;4993094;28;19918;-60
2021/12/04 03:49:57;;;;;;;;;;;11.70;99.90;;;;;;4989802;28;20333;-61
2021/12/04 03:52:23;;;;;;;;;;;11.80;99.90;;;;;;4989928;28;20339;-61
2021/12/04 03:54:49;;;;;;;;;;;11.70;99.90;;;;;;4991155;28;19918;-61
2021/12/04 03:57:14;;;;;;;;;;;11.80;99.90;;;;;;4989398;28;19922;-63
2021/12/04 03:59:41;;;;;;;;;;;11.80;99.90;;;;;;4991723;28;19917;-60
2021/12/04 04:02:08;;;;;;;;;;;11.80;99.90;;;;;;4991033;28;19992;-61
2021/12/04 04:04:33;;;;;;;;;;;11.80;99.90;;;;;;4989343;28;19914;-60
2021/12/04 04:06:59;;;;;;;;;;;11.70;99.90;;;;;;4989135;28;19925;-61
2021/12/04 04:09:25;;;;;;;;;;;11.80;99.90;;;;;;4989416;28;19918;-61
2021/12/04 04:11:51;;;;;;;;;;;11.80;99.90;;;;;;4990900;28;20425;-59
2021/12/04 04:14:16;;;;;;;;;;;11.70;99.90;;;;;;4991041;28;20283;-60
2021/12/04 04:16:42;;;;;;;;;;;11.70;99.90;;;;;;4988871;28;19914;-63
2021/12/04 04:19:08;;;;;;;;;;;11.70;99.90;;;;;;4989525;28;20370;-61
2021/12/04 04:21:40;;;;;;;;;;;11.70;99.90;;;;;;4989514;28;19968;-61
2021/12/04 04:24:06;;;;;;;;;;;11.60;99.90;;;;;;4974477;28;19960;-61
2021/12/04 04:26:32;;;;;;;;;;;11.60;99.90;;;;;;4991746;28;19913;-62
2021/12/04 04:28:57;;;;;;;;;;;11.60;99.90;;;;;;4989495;28;19914;-61
2021/12/04 04:31:23;;;;;;;;;;;11.60;99.90;;;;;;4988673;28;19960;-62
2021/12/04 04:33:48;;;;;;;;;;;11.60;99.90;;;;;;4988747;28;20539;-61
2021/12/04 04:36:34;;;;;;;;;;;11.50;99.90;;;;;;4989355;28;19925;-61
2021/12/04 05:11:55;;;;;;;;;;;11.30;99.90;;;;;;4990830;28;19964;-60
2021/12/04 05:14:21;;;;;;;;;;;11.40;99.90;;;;;;4990745;28;19913;-61
2021/12/04 05:16:52;;;;;;;;;;;11.30;99.90;;;;;;4988161;28;19929;-61
2021/12/04 05:19:37;;;;;;;;;;;11.30;99.90;;;;;;4988406;28;20276;-61
2021/12/04 05:22:03;;;;;;;;;;;11.40;99.90;;;;;;4988050;28;19914;-60
2021/12/04 05:24:29;;;;;;;;;;;11.40;99.90;;;;;;4988058;28;19924;-61
2021/12/04 05:26:54;;;;;;;;;;;11.30;99.90;;;;;;4989100;28;19929;-60
2021/12/04 05:29:20;;;;;;;;;;;11.40;99.90;;;;;;4990677;28;19914;-62
2021/12/04 05:31:45;;;;;;;;;;;11.30;99.90;;;;;;4988438;28;19921;-61
2021/12/04 05:34:11;;;;;;;;;;;11.40;99.90;;;;;;4987951;28;20405;-61
2021/12/04 05:36:36;;;;;;;;;;;11.30;99.90;;;;;;4987912;28;19943;-61
2021/12/04 05:39:02;;;;;;;;;;;11.30;99.90;;;;;;4988688;28;19921;-60
2021/12/04 05:41:28;;;;;;;;;;;11.30;99.90;;;;;;4991407;28;20331;-60
2021/12/04 05:43:53;;;;;;;;;;;11.20;99.90;;;;;;4987850;28;19929;-60
2021/12/04 05:46:25;;;;;;;;;;;11.20;99.90;;;;;;4987651;28;19924;-60
2021/12/04 05:48:56;;;;;;;;;;;11.20;99.90;;;;;;4987934;28;19917;-58
2021/12/04 05:51:30;;;;;;;;;;;11.20;99.90;;;;;;4989027;28;20443;-60
2021/12/04 05:54:43;;;;;;;;;;;11.20;99.90;;;;;;4988706;28;19922;-60
2021/12/04 05:56:48;;;;;;;;;;;11.20;99.90;;;;;;4991292;28;19913;-61
2021/12/04 05:59:14;;;;;;;;;;;11.20;99.90;;;;;;4989388;28;19918;-62
2021/12/04 06:01:40;;;;;;;;;;;11.20;99.90;;;;;;4987680;28;19921;-60
2021/12/04 06:04:05;;;;;;;;;;;11.20;99.90;;;;;;4987792;28;19914;-63
2021/12/04 06:06:31;;;;;;;;;;;11.20;99.90;;;;;;4988144;28;19921;-60
2021/12/04 06:08:56;;;;;;;;;;;11.20;99.90;;;;;;4989646;28;19922;-60
2021/12/04 06:11:22;;;;;;;;;;;11.20;99.90;;;;;;4994197;28;19910;-61
2021/12/04 06:13:47;;;;;;;;;;;11.30;99.90;;;;;;4991696;28;20422;-61
2021/12/04 06:16:14;;;;;;;;;;;11.20;99.90;;;;;;4991233;28;19972;-60
2021/12/04 06:18:40;;;;;;;;;;;11.30;99.90;;;;;;4991344;28;19918;-61
2021/12/04 06:23:50;;;;;;;;;;;11.40;99.90;;;;;;4992748;28;19916;-59
2021/12/04 06:26:15;;;;;;;;;;;11.30;99.90;;;;;;4994808;28;20004;-62
2021/12/04 06:28:41;;;;;;;;;;;11.40;99.90;;;;;;4991207;28;19968;-63
2021/12/04 06:31:09;;;;;;;;;;;11.30;99.90;;;;;;4991253;28;20370;-61
2021/12/04 06:33:35;;;;;;;;;;;11.30;99.90;;;;;;4991270;28;19917;-60
2021/12/04 06:36:00;;;;;;;;;;;11.30;99.90;;;;;;4975660;28;19944;-61
2021/12/04 06:38:26;;;;;;;;;;;11.30;99.90;;;;;;4994253;28;20462;-61
2021/12/04 06:40:52;;;;;;;;;;;11.20;99.90;;;;;;4992416;28;19936;-61
2021/12/04 06:43:18;;;;;;;;;;;11.20;99.90;;;;;;4990892;28;20017;-62
2021/12/04 06:45:46;;;;;;;;;;;11.20;99.90;;;;;;4990613;28;20264;-61
2021/12/04 06:48:17;;;;;;;;;;;11.30;99.90;;;;;;4991174;28;19922;-61
2021/12/04 06:51:04;;;;;;;;;;;11.20;99.90;;;;;;4992781;28;19920;-61
2021/12/04 06:53:47;;;;;;;;;;;11.20;99.90;;;;;;4990073;28;19916;-61
2021/12/04 06:56:13;;;;;;;;;;;11.30;99.90;;;;;;4991949;28;19918;-62
2021/12/04 06:58:39;;;;;;;;;;;11.20;99.90;;;;;;4990203;28;19925;-61
2021/12/04 07:01:06;;;;;;;;;;;11.20;99.90;;;;;;4990289;28;20470;-61
2021/12/04 07:03:32;;;;;;;;;;;11.20;99.90;;;;;;4989874;28;19986;-60
2021/12/04 07:05:57;;;;;;;;;;;11.20;99.90;;;;;;4990196;28;20342;-61
2021/12/04 07:08:23;;;;;;;;;;;11.20;99.90;;;;;;4992504;28;19925;-60
2021/12/04 07:10:50;;;;;;;;;;;11.20;99.90;;;;;;4990065;28;19917;-61
2021/12/04 07:13:17;;;;;;;;;;;11.40;99.90;;;;;;5005516;28;19945;-61
2021/12/04 07:15:45;;;;;;;;;;;11.40;99.90;;;;;;4989749;28;19914;-61
2021/12/04 07:18:11;;;;;;;;;;;11.40;99.90;;;;;;4990046;28;19918;-61
2021/12/04 07:20:36;;;;;;;;;;;11.40;99.90;;;;;;4989684;28;19930;-61
2021/12/04 07:23:02;;;;;;;;;;;11.40;99.90;;;;;;4991010;28;20398;-61
2021/12/04 07:25:27;;;;;;;;;;;11.40;99.90;;;;;;4986185;28;19914;-60
2021/12/04 07:27:53;;;;;;;;;;;11.40;99.90;;;;;;4989614;28;19945;-61
2021/12/04 07:30:19;;;;;;;;;;;11.40;99.90;;;;;;4989495;28;20299;-58
2021/12/04 07:32:45;;;;;;;;;;;11.40;99.90;;;;;;4991839;28;19997;-57
2021/12/04 07:35:11;;;;;;;;;;;11.40;99.90;;;;;;4990155;28;20004;-59
2021/12/04 07:37:36;;;;;;;;;;;11.40;99.90;;;;;;4989388;28;19929;-60
2021/12/04 07:40:02;;;;;;;;;;;11.40;99.90;;;;;;4989216;28;19921;-60
2021/12/04 07:42:28;;;;;;;;;;;11.40;99.90;;;;;;4991025;28;20408;-58
2021/12/04 07:44:53;;;;;;;;;;;11.40;99.90;;;;;;4990439;28;20008;-59
2021/12/04 07:47:19;;;;;;;;;;;11.50;99.90;;;;;;4991465;28;20061;-59
2021/12/04 07:49:44;;;;;;;;;;;11.50;99.90;;;;;;4990591;28;19913;-60
2021/12/04 07:52:11;;;;;;;;;;;11.50;99.90;;;;;;4988744;28;19925;-60
2021/12/04 07:54:36;;;;;;;;;;;11.60;99.90;;;;;;4990229;28;19921;-59
2021/12/04 07:57:02;;;;;;;;;;;11.60;99.90;;;;;;4989148;28;20306;-60
2021/12/04 07:59:28;;;;;;;;;;;11.60;99.90;;;;;;4992683;28;19910;-60
2021/12/04 08:01:58;;;;;;;;;;;11.50;99.90;;;;;;4988972;28;19925;-60
2021/12/04 08:04:24;;;;;;;;;;;11.50;99.90;;;;;;4988356;28;19914;-60
2021/12/04 08:06:50;;;;;;;;;;;11.50;99.90;;;;;;4988919;28;19928;-60
2021/12/04 08:09:15;;;;;;;;;;;11.60;99.90;;;;;;4988497;28;20454;-58
2021/12/04 08:11:41;;;;;;;;;;;11.60;99.90;;;;;;4991389;28;19910;-60
2021/12/04 08:14:06;;;;;;;;;;;11.60;99.90;;;;;;4989863;28;19916;-58
2021/12/04 08:16:32;;;;;;;;;;;11.60;99.90;;;;;;4988571;28;19960;-58
2021/12/04 08:18:58;;;;;;;;;;;11.60;99.90;;;;;;4986584;28;19913;-56
2021/12/04 08:21:24;;;;;;;;;;;11.60;99.90;;;;;;4984491;28;20348;-59
2021/12/04 08:23:50;;;;;;;;;;;11.60;99.90;;;;;;4984905;28;19909;-59
2021/12/04 08:26:16;;;;;;;;;;;11.60;99.90;;;;;;4987126;28;20568;-58
2021/12/04 08:28:41;;;;;;;;;;;11.60;99.90;;;;;;4986994;28;20017;-59
2021/12/04 08:31:07;;;;;;;;;;;11.50;99.90;;;;;;4987192;28;20408;-58
2021/12/04 08:33:32;;;;;;;;;;;11.60;99.90;;;;;;4984059;28;19918;-59
2021/12/04 08:35:58;;;;;;;;;;;11.50;99.90;;;;;;4984994;28;19914;-59
2021/12/04 08:38:24;;;;;;;;;;;11.50;99.90;;;;;;4983907;28;19914;-60
2021/12/04 08:40:49;;;;;;;;;;;11.40;99.90;;;;;;4981715;28;19953;-59
2021/12/04 08:43:15;;;;;;;;;;;11.40;99.90;;;;;;4982850;28;20381;-59
2021/12/04 08:45:41;;;;;;;;;;;11.30;99.90;;;;;;4977952;28;19953;-60
2021/12/04 08:48:07;;;;;;;;;;;11.20;99.90;;;;;;4988693;28;19922;-58
2021/12/04 08:50:33;;;;;;;;;;;11.20;99.90;;;;;;4992240;28;19910;-58
2021/12/04 08:52:59;;;;;;;;;;;11.10;99.90;;;;;;4988299;28;20310;-59
2021/12/04 08:55:26;;;;;;;;;;;11.10;99.90;;;;;;4988482;28;19914;-59
2021/12/04 08:57:51;;;;;;;;;;;11.10;99.90;;;;;;4988759;28;19929;-58
2021/12/04 09:00:20;;;;;;;;;;;11.10;99.90;;;;;;4988545;28;19914;-59
2021/12/04 09:02:46;;;;;;;;;;;11.10;99.90;;;;;;4990528;28;20405;-58
2021/12/04 09:05:12;;;;;;;;;;;11.10;99.90;;;;;;4989787;28;19909;-59
2021/12/04 09:07:38;;;;;;;;;;;11.10;99.90;;;;;;4988234;28;19921;-59
2021/12/04 09:10:04;;;;;;;;;;;11.10;99.90;;;;;;4988649;28;19913;-58
2021/12/04 09:12:30;;;;;;;;;;;11.10;99.90;;;;;;4988657;28;20029;-58
2021/12/04 09:14:56;;;;;;;;;;;11.10;99.90;;;;;;4989577;28;19914;-59
2021/12/04 09:17:22;;;;;;;;;;;11.00;99.90;;;;;;4990291;28;20000;-59
2021/12/04 09:19:48;;;;;;;;;;;10.80;99.90;;;;;;4988509;28;19968;-58
2021/12/04 09:22:24;;;;;;;;;;;10.70;99.90;;;;;;4988045;28;19925;-60
2021/12/04 09:24:53;;;;;;;;;;;10.60;99.90;;;;;;4988223;28;20455;-60
2021/12/04 09:27:34;;;;;;;;;;;10.60;99.90;;;;;;4988396;28;19926;-59
2021/12/04 09:30:21;;;;;;;;;;;10.60;99.90;;;;;;4989256;28;20032;-59
2021/12/04 10:16:32;;;;;;;;;;;10.50;99.90;;;;;;4991652;28;19918;-58
2021/12/04 10:35:05;;;;;;;;;;;10.50;99.90;;;;;;4991858;28;19914;-59
2021/12/04 10:37:31;;;;;;;;;;;10.50;99.90;;;;;;4991091;28;19913;-59
2021/12/04 10:39:59;;;;;;;;;;;10.50;99.90;;;;;;4991128;28;19957;-59
2021/12/04 10:42:30;;;;;;;;;;;10.50;99.90;;;;;;4991373;28;20391;-57
2021/12/04 10:44:56;;;;;;;;;;;10.50;99.90;;;;;;4992039;28;19918;-59
2021/12/04 10:47:24;;;;;;;;;;;10.50;99.90;;;;;;4993358;28;19921;-59
2021/12/04 10:50:06;;;;;;;;;;;10.30;99.90;;;;;;4990909;28;19953;-58
2021/12/04 10:55:18;;;;;;;;;;;10.00;99.90;;;;;;4990045;28;19917;-59
2021/12/04 11:02:46;;;;;;;;;;;9.70;99.90;;;;;;4992913;28;20000;-60
2021/12/04 11:20:05;;;;;;;;;;;9.40;99.90;;;;;;5009667;28;20019;-58
2021/12/04 11:22:24;;;;;;;;;;;9.30;99.90;;;;;;5009811;28;19913;-59
2021/12/04 11:28:10;;;;;;;;;;;9.30;99.90;;;;;;5009033;28;19944;-58
2021/12/04 11:41:17;;;;;;;;;;;8.80;99.90;;;;;;5009335;28;20341;-57
2021/12/04 11:44:00;;;;;;;;;;;8.60;99.90;;;;;;5009330;28;19917;-57
2021/12/04 11:47:07;;;;;;;;;;;8.50;99.90;;;;;;4989400;28;19914;-58
2021/12/04 11:49:30;;;;;;;;;;;8.50;99.90;;;;;;4990187;28;20500;-59
2021/12/04 11:51:58;;;;;;;;;;;8.60;99.90;;;;;;4989195;28;19918;-61
2021/12/04 11:54:26;;;;;;;;;;;8.70;99.90;;;;;;4982660;28;19914;-60
2021/12/04 11:56:58;;;;;;;;;;;8.80;99.90;;;;;;4990740;28;19918;-61
2021/12/04 11:59:27;;;;;;;;;;;8.80;99.90;;;;;;4991534;28;19917;-61
2021/12/04 12:01:56;;;;;;;;;;;8.90;99.90;;;;;;4988100;28;20147;-59
2021/12/04 12:04:30;;;;;;;;;;;8.90;99.90;;;;;;4988936;28;19914;-58
2021/12/04 12:06:56;;;;;;;;;;;8.90;99.90;;;;;;4980552;28;19922;-61
2021/12/04 12:09:26;;;;;;;;;;;8.90;99.90;;;;;;4989067;28;19918;-61
2021/12/04 12:11:54;;;;;;;;;;;8.80;99.90;;;;;;4987424;28;19953;-61
2021/12/04 12:14:33;;;;;;;;;;;8.70;99.90;;;;;;4982222;28;19961;-60
2021/12/04 12:16:59;;;;;;;;;;;8.60;99.90;;;;;;4980239;28;20012;-60
2021/12/04 12:19:27;;;;;;;;;;;8.60;99.90;;;;;;4983906;28;20008;-61
2021/12/04 12:22:03;;;;;;;;;;;8.60;99.90;;;;;;4985351;28;19914;-61
2021/12/04 12:27:18;;;;;;;;;;;8.60;99.90;;;;;;4983252;28;19922;-60
2021/12/04 12:38:16;;;;;;;;;;;8.60;99.90;;;;;;4986479;28;19925;-60
2021/12/04 12:40:42;;;;;;;;;;;8.60;99.90;;;;;;4979369;28;20347;-59
2021/12/04 12:43:09;;;;;;;;;;;8.70;99.90;;;;;;4984727;28;19918;-60
2021/12/04 12:45:35;;;;;;;;;;;8.70;99.90;;;;;;4993306;28;19933;-63
2021/12/04 12:48:03;;;;;;;;;;;8.80;99.90;;;;;;4979570;28;23752;-61
2021/12/04 12:50:36;;;;;;;;;;;8.80;99.90;;;;;;4982556;28;19936;-60
2021/12/04 12:53:05;;;;;;;;;;;8.90;99.90;;;;;;4982179;28;19989;-60
2021/12/04 12:55:33;;;;;;;;;;;8.80;99.90;;;;;;4981168;28;20365;-60
2021/12/04 12:58:10;;;;;;;;;;;8.80;99.90;;;;;;4979661;28;19965;-59
2021/12/04 13:11:57;;;;;;;;;;;8.80;99.90;;;;;;4998989;28;19940;-59
2021/12/04 13:14:25;;;;;;;;;;;8.70;99.90;;;;;;4999437;28;20274;-60
2021/12/04 13:17:00;;;;;;;;;;;8.70;99.90;;;;;;4999966;28;19928;-61
2021/12/04 13:19:26;;;;;;;;;;;8.70;99.90;;;;;;4999298;28;19913;-60
2021/12/04 13:21:55;;;;;;;;;;;8.60;99.90;;;;;;4998994;28;19914;-60
2021/12/04 13:24:27;;;;;;;;;;;8.70;99.90;;;;;;4997647;28;19918;-61
2021/12/04 13:26:54;;;;;;;;;;;8.70;99.90;;;;;;4997555;28;20008;-60
2021/12/04 13:29:22;;;;;;;;;;;8.80;99.90;;;;;;5004425;28;19913;-59
2021/12/04 13:31:47;;;;;;;;;;;8.80;99.90;;;;;;4999887;28;19963;-61
2021/12/04 13:34:20;;;;;;;;;;;8.80;99.90;;;;;;4997995;28;20349;-60
2021/12/04 13:36:46;;;;;;;;;;;8.70;99.90;;;;;;4995205;28;20053;-61
2021/12/04 13:39:13;;;;;;;;;;;8.60;99.90;;;;;;4978996;28;19949;-62
2021/12/04 13:41:41;;;;;;;;;;;8.60;99.90;;;;;;4981267;28;20253;-60
2021/12/04 13:44:07;;;;;;;;;;;8.50;99.90;;;;;;4984844;28;19913;-60
2021/12/04 13:46:40;;;;;;;;;;;8.50;99.90;;;;;;4983484;28;19925;-61
2021/12/04 13:49:06;;;;;;;;;;;8.50;99.90;;;;;;4979275;28;19918;-60
2021/12/04 13:51:31;;;;;;;;;;;8.50;99.90;;;;;;4977257;28;19925;-59
2021/12/04 13:53:57;;;;;;;;;;;8.50;99.90;;;;;;4980678;28;20433;-59
2021/12/04 13:56:22;;;;;;;;;;;8.60;99.90;;;;;;4981586;28;19921;-60
2021/12/04 13:58:50;;;;;;;;;;;8.60;99.20;;;;;;4978876;28;19948;-59
2021/12/04 14:01:16;;;;;;;;;;;8.50;99.90;;;;;;4980200;28;19914;-60
2021/12/04 14:03:42;;;;;;;;;;;8.50;99.60;;;;;;4977861;28;19914;-59
2021/12/04 14:06:11;;;;;;;;;;;8.50;98.80;;;;;;4979017;28;20292;-59
2021/12/04 14:08:37;;;;;;;;;;;8.50;99.90;;;;;;4984206;28;19930;-60
2021/12/04 14:11:02;;;;;;;;;;;8.50;99.70;;;;;;4980650;28;19969;-60
2021/12/04 14:13:28;;;;;;;;;;;8.60;99.90;;;;;;4980492;28;19917;-59
2021/12/04 14:15:56;;;;;;;;;;;8.50;98.80;;;;;;4979063;28;20283;-60
2021/12/04 14:18:23;;;;;;;;;;;8.40;99.90;;;;;;4978567;28;20395;-60
2021/12/04 14:20:50;;;;;;;;;;;8.40;99.10;;;;;;4980785;28;19914;-59
2021/12/04 14:23:16;;;;;;;;;;;8.40;99.10;;;;;;4980929;28;19921;-60
2021/12/04 14:25:43;;;;;;;;;;;8.40;98.40;;;;;;4980371;28;19914;-58
2021/12/04 14:28:09;;;;;;;;;;;8.30;97.50;;;;;;4982487;28;19943;-59
2021/12/04 14:30:36;;;;;;;;;;;8.20;98.30;;;;;;4980335;28;19913;-58
2021/12/04 14:33:05;;;;;;;;;;;8.20;98.80;;;;;;4982816;28;19922;-58
2021/12/04 14:35:32;;;;;;;;;;;8.20;97.70;;;;;;4984430;28;19972;-59
2021/12/04 14:37:59;;;;;;;;;;;8.20;98.00;;;;;;4985267;28;20354;-58
2021/12/04 14:40:24;;;;;;;;;;;8.20;99.00;;;;;;4983167;28;19960;-58
2021/12/04 14:42:51;;;;;;;;;;;8.20;98.60;;;;;;4983478;28;19956;-58
2021/12/04 14:45:21;;;;;;;;;;;8.30;98.30;;;;;;4981739;28;19999;-58
2021/12/04 14:47:49;;;;;;;;;;;8.30;97.10;;;;;;4984167;28;19939;-58
2021/12/04 14:50:16;;;;;;;;;;;8.20;97.10;;;;;;4983376;28;19914;-58
2021/12/04 14:52:42;;;;;;;;;;;8.20;96.80;;;;;;4984661;28;19918;-60
2021/12/04 14:55:12;;;;;;;;;;;8.20;96.10;;;;;;4981491;28;19929;-58
2021/12/04 14:57:39;;;;;;;;;;;8.20;96.30;;;;;;4980495;28;20273;-60
2021/12/04 15:00:25;;;;;;;;;;;8.10;97.00;;;;;;4983048;28;20299;-59
2021/12/04 15:03:01;;;;;;;;;;;8.10;96.60;;;;;;4982429;28;19929;-57
2021/12/04 15:05:29;;;;;;;;;;;8.10;95.80;;;;;;4984616;28;20000;-58
2021/12/04 15:07:58;;;;;;;;;;;8.00;96.30;;;;;;4983952;28;19988;-57
2021/12/04 15:10:23;;;;;;;;;;;8.00;95.40;;;;;;4986174;28;20358;-59
2021/12/04 15:12:51;;;;;;;;;;;8.00;97.80;;;;;;4982054;28;19918;-58
2021/12/04 15:15:19;;;;;;;;;;;8.00;97.40;;;;;;4981639;28;19918;-57
2021/12/04 15:17:55;;;;;;;;;;;8.00;96.30;;;;;;4984499;28;19920;-58
2021/12/04 15:20:28;;;;;;;;;;;8.00;97.30;;;;;;4984641;28;19914;-58
2021/12/04 15:22:57;;;;;;;;;;;8.00;96.70;;;;;;4983137;28;20302;-58
2021/12/04 15:25:30;;;;;;;;;;;7.90;97.70;;;;;;4982685;28;19914;-59
2021/12/04 15:27:56;;;;;;;;;;;7.90;97.90;;;;;;4984120;28;19980;-57
2021/12/04 15:30:21;;;;;;;;;;;7.90;96.80;;;;;;4980395;28;19924;-57
2021/12/04 15:32:47;;;;;;;;;;;7.80;96.90;;;;;;4985473;28;19917;-58
2021/12/04 15:35:37;;;;;;;;;;;7.80;97.50;;;;;;4983402;28;19922;-57
2021/12/04 15:38:08;;;;;;;;;;;7.80;98.10;;;;;;4984031;28;19914;-57
2021/12/04 15:40:49;;;;;;;;;;;7.80;98.30;;;;;;4985886;28;19924;-57
2021/12/04 15:54:44;;;;;;;;;;;7.40;98.00;;;;;;5026945;28;19928;-58
2021/12/04 15:57:11;;;;;;;;;;;7.40;98.40;;;;;;5011616;28;19929;-59
2021/12/04 15:59:42;;;;;;;;;;;7.30;98.40;;;;;;5029665;28;20389;-58
2021/12/04 16:02:09;;;;;;;;;;;7.20;98.50;;;;;;5027383;28;19920;-59
2021/12/04 16:04:35;;;;;;;;;;;7.10;98.20;;;;;;5026201;28;20332;-60
2021/12/04 16:07:01;;;;;;;;;;;7.10;98.70;;;;;;5025885;28;19932;-59
2021/12/04 16:09:28;;;;;;;;;;;7.10;98.80;;;;;;5026769;28;20320;-59
2021/12/04 16:12:10;;;;;;;;;;;7.10;98.60;;;;;;5027327;28;20004;-59
2021/12/04 16:14:43;;;;;;;;;;;7.00;99.00;;;;;;5029115;28;19909;-58
2021/12/04 16:17:10;;;;;;;;;;;7.00;99.20;;;;;;5028329;28;19909;-59
2021/12/04 16:19:38;;;;;;;;;;;7.00;98.90;;;;;;5025862;28;20047;-58
2021/12/04 16:22:07;;;;;;;;;;;6.90;99.00;;;;;;5025518;28;20388;-58
2021/12/04 16:24:33;;;;;;;;;;;6.90;99.30;;;;;;5025781;28;20479;-59
2021/12/04 16:27:14;;;;;;;;;;;6.90;98.70;;;;;;4991154;28;20046;-59
2021/12/04 16:29:49;;;;;;;;;;;6.80;98.90;;;;;;4991274;28;20000;-56
2021/12/04 16:35:12;;;;;;;;;;;6.80;98.80;;;;;;4988329;28;19918;-56
2021/12/04 16:37:55;;;;;;;;;;;6.80;99.50;;;;;;4988387;28;19922;-56
2021/12/04 16:40:23;;;;;;;;;;;6.80;98.40;;;;;;4988507;28;19922;-56
2021/12/04 16:42:51;;;;;;;;;;;6.80;98.00;;;;;;4988769;28;19914;-57
2021/12/04 16:45:18;;;;;;;;;;;6.80;97.80;;;;;;4988407;28;20391;-59
2021/12/04 16:47:46;;;;;;;;;;;6.90;97.30;;;;;;4990205;28;19970;-57
2021/12/04 16:50:16;;;;;;;;;;;6.80;97.80;;;;;;4989218;28;20420;-57
2021/12/04 16:58:12;;;;;;;;;;;6.70;98.50;;;;;;4985031;28;19922;-58
2021/12/04 17:00:39;;;;;;;;;;;6.60;99.30;;;;;;4986248;28;19917;-58
2021/12/04 17:03:04;;;;;;;;;;;6.40;99.90;;;;;;4987356;28;19913;-58
2021/12/04 17:05:34;;;;;;;;;;;6.00;99.90;;;;;;4989811;28;19920;-59
2021/12/04 17:07:59;;;;;;;;;;;5.60;99.90;;;;;;4987791;28;19929;-58
2021/12/04 17:10:26;;;;;;;;;;;5.40;99.90;;;;;;4988022;28;19914;-59
2021/12/04 17:12:52;;;;;;;;;;;5.30;99.90;;;;;;4988483;28;19922;-59
2021/12/04 17:15:17;;;;;;;;;;;5.30;99.90;;;;;;4987631;28;19914;-58
2021/12/04 17:17:45;;;;;;;;;;;5.40;99.90;;;;;;4990105;28;19910;-57
2021/12/04 17:20:12;;;;;;;;;;;5.40;99.90;;;;;;4988541;28;20330;-60
2021/12/04 17:22:38;;;;;;;;;;;5.40;99.90;;;;;;4987597;28;19965;-57
2021/12/04 17:25:04;;;;;;;;;;;5.40;99.90;;;;;;4988219;28;20407;-58
2021/12/04 17:27:30;;;;;;;;;;;5.30;99.90;;;;;;4988840;28;20458;-57
2021/12/04 17:29:56;;;;;;;;;;;5.30;99.90;;;;;;4988440;28;20004;-58
2021/12/04 17:32:22;;;;;;;;;;;5.40;99.90;;;;;;4990198;28;20004;-58
2021/12/04 17:34:48;;;;;;;;;;;5.50;99.90;;;;;;4986971;28;20363;-59
2021/12/04 17:37:15;;;;;;;;;;;5.50;99.90;;;;;;4981487;28;19921;-59